sensor_id;sensor_type;location;lat;lon;timestamp;P1;durP1;ratioP1;P2;durP2;ratioP2
42666;SDS011;28280;49.646;14.130;2022-07-15T00:02:11;3.42;;;2.10;;
42666;SDS011;28280;49.646;14.130;2022-07-15T00:07:42;2.88;;;1.90;;
42666;SDS011;28280;49.646;14.130;2022-07-15T00:13:13;4.05;;;2.00;;
42666;SDS011;28280;49.646;14.130;2022-07-15T00:18:44;3.22;;;1.85;;
42666;SDS011;28280;49.646;14.130;2022-07-15T00:24:16;3.08;;;1.80;;
42666;SDS011;28280;49.646;14.130;2022-07-15T00:29:47;3.53;;;2.05;;
42666;SDS011;28280;49.646;14.130;2022-07-15T00:35:18;3.42;;;1.65;;
42666;SDS011;28280;49.646;14.130;2022-07-15T00:40:49;3.40;;;1.90;;
42666;SDS011;28280;49.646;14.130;2022-07-15T00:46:21;3.42;;;2.00;;
42666;SDS011;28280;49.646;14.130;2022-07-15T00:51:54;4.55;;;1.60;;
42666;SDS011;28280;49.646;14.130;2022-07-15T00:57:27;7.72;;;1.90;;
42666;SDS011;28280;49.646;14.130;2022-07-15T01:08:30;5.15;;;1.90;;
42666;SDS011;28280;49.646;14.130;2022-07-15T01:14:02;3.53;;;1.58;;
42666;SDS011;28280;49.646;14.130;2022-07-15T01:19:34;2.13;;;1.20;;
42666;SDS011;28280;49.646;14.130;2022-07-15T01:25:06;2.70;;;1.30;;
42666;SDS011;28280;49.646;14.130;2022-07-15T01:30:38;3.60;;;1.45;;
42666;SDS011;28280;49.646;14.130;2022-07-15T01:36:11;3.47;;;1.38;;
42666;SDS011;28280;49.646;14.130;2022-07-15T01:41:48;3.20;;;1.23;;
42666;SDS011;28280;49.646;14.130;2022-07-15T01:47:21;3.25;;;1.55;;
42666;SDS011;28280;49.646;14.130;2022-07-15T01:52:54;2.78;;;1.25;;
42666;SDS011;28280;49.646;14.130;2022-07-15T01:58:27;7.30;;;1.30;;
42666;SDS011;28280;49.646;14.130;2022-07-15T02:03:58;6.18;;;1.85;;
42666;SDS011;28280;49.646;14.130;2022-07-15T02:09:30;2.15;;;1.45;;
42666;SDS011;28280;49.646;14.130;2022-07-15T02:15:01;2.85;;;1.52;;
42666;SDS011;28280;49.646;14.130;2022-07-15T02:20:44;3.42;;;1.30;;
42666;SDS011;28280;49.646;14.130;2022-07-15T02:26:16;4.53;;;1.40;;
42666;SDS011;28280;49.646;14.130;2022-07-15T02:31:48;5.95;;;1.20;;
42666;SDS011;28280;49.646;14.130;2022-07-15T02:37:19;4.97;;;1.58;;
42666;SDS011;28280;49.646;14.130;2022-07-15T02:42:54;3.85;;;1.13;;
42666;SDS011;28280;49.646;14.130;2022-07-15T02:48:27;3.42;;;1.20;;
42666;SDS011;28280;49.646;14.130;2022-07-15T02:53:59;2.72;;;1.33;;
42666;SDS011;28280;49.646;14.130;2022-07-15T02:59:32;3.28;;;1.40;;
42666;SDS011;28280;49.646;14.130;2022-07-15T03:05:04;1.73;;;1.20;;
42666;SDS011;28280;49.646;14.130;2022-07-15T03:10:38;2.28;;;1.20;;
42666;SDS011;28280;49.646;14.130;2022-07-15T03:16:09;2.78;;;1.23;;
42666;SDS011;28280;49.646;14.130;2022-07-15T03:21:44;2.63;;;1.30;;
42666;SDS011;28280;49.646;14.130;2022-07-15T03:27:15;3.33;;;1.30;;
42666;SDS011;28280;49.646;14.130;2022-07-15T03:32:48;2.63;;;1.10;;
42666;SDS011;28280;49.646;14.130;2022-07-15T03:38:21;3.38;;;1.30;;
42666;SDS011;28280;49.646;14.130;2022-07-15T03:43:53;3.60;;;1.30;;
42666;SDS011;28280;49.646;14.130;2022-07-15T03:49:25;4.97;;;1.60;;
42666;SDS011;28280;49.646;14.130;2022-07-15T03:54:56;2.38;;;1.05;;
42666;SDS011;28280;49.646;14.130;2022-07-15T04:00:27;5.75;;;1.27;;
42666;SDS011;28280;49.646;14.130;2022-07-15T04:06:01;2.45;;;1.33;;
42666;SDS011;28280;49.646;14.130;2022-07-15T04:11:32;3.65;;;1.10;;
42666;SDS011;28280;49.646;14.130;2022-07-15T04:17:04;5.90;;;1.10;;
42666;SDS011;28280;49.646;14.130;2022-07-15T04:22:42;2.22;;;1.10;;
42666;SDS011;28280;49.646;14.130;2022-07-15T04:28:14;1.63;;;1.10;;
42666;SDS011;28280;49.646;14.130;2022-07-15T04:33:46;3.15;;;1.10;;
42666;SDS011;28280;49.646;14.130;2022-07-15T04:39:17;2.90;;;1.20;;
42666;SDS011;28280;49.646;14.130;2022-07-15T04:44:49;1.67;;;1.05;;
42666;SDS011;28280;49.646;14.130;2022-07-15T04:50:22;2.40;;;1.08;;
42666;SDS011;28280;49.646;14.130;2022-07-15T04:56:13;1.85;;;1.05;;
42666;SDS011;28280;49.646;14.130;2022-07-15T05:01:47;2.17;;;1.08;;
42666;SDS011;28280;49.646;14.130;2022-07-15T05:07:25;2.17;;;1.27;;
42666;SDS011;28280;49.646;14.130;2022-07-15T05:12:57;3.00;;;0.98;;
42666;SDS011;28280;49.646;14.130;2022-07-15T05:18:28;2.15;;;0.85;;
42666;SDS011;28280;49.646;14.130;2022-07-15T05:24:02;2.05;;;0.95;;
42666;SDS011;28280;49.646;14.130;2022-07-15T05:29:53;1.88;;;1.00;;
42666;SDS011;28280;49.646;14.130;2022-07-15T05:35:25;4.07;;;1.20;;
42666;SDS011;28280;49.646;14.130;2022-07-15T05:40:56;1.30;;;0.90;;
42666;SDS011;28280;49.646;14.130;2022-07-15T05:52:06;2.47;;;0.95;;
42666;SDS011;28280;49.646;14.130;2022-07-15T05:57:38;2.20;;;0.93;;
42666;SDS011;28280;49.646;14.130;2022-07-15T06:03:16;3.65;;;0.90;;
42666;SDS011;28280;49.646;14.130;2022-07-15T06:08:49;2.33;;;0.90;;
42666;SDS011;28280;49.646;14.130;2022-07-15T06:14:20;2.08;;;0.88;;
42666;SDS011;28280;49.646;14.130;2022-07-15T06:19:54;2.08;;;0.90;;
42666;SDS011;28280;49.646;14.130;2022-07-15T06:25:25;1.92;;;1.08;;
42666;SDS011;28280;49.646;14.130;2022-07-15T06:30:56;2.13;;;0.80;;
42666;SDS011;28280;49.646;14.130;2022-07-15T06:36:27;2.30;;;0.82;;
42666;SDS011;28280;49.646;14.130;2022-07-15T06:41:59;1.33;;;0.90;;
42666;SDS011;28280;49.646;14.130;2022-07-15T06:47:31;1.90;;;0.90;;
42666;SDS011;28280;49.646;14.130;2022-07-15T06:53:02;2.45;;;1.10;;
42666;SDS011;28280;49.646;14.130;2022-07-15T06:58:34;1.45;;;0.80;;
42666;SDS011;28280;49.646;14.130;2022-07-15T07:04:05;2.13;;;0.98;;
42666;SDS011;28280;49.646;14.130;2022-07-15T07:09:37;1.67;;;1.00;;
42666;SDS011;28280;49.646;14.130;2022-07-15T07:15:08;2.78;;;1.25;;
42666;SDS011;28280;49.646;14.130;2022-07-15T07:20:40;1.33;;;0.80;;
42666;SDS011;28280;49.646;14.130;2022-07-15T07:26:14;2.88;;;0.90;;
42666;SDS011;28280;49.646;14.130;2022-07-15T07:31:46;1.98;;;0.80;;
42666;SDS011;28280;49.646;14.130;2022-07-15T07:37:17;1.20;;;0.80;;
42666;SDS011;28280;49.646;14.130;2022-07-15T07:42:49;2.22;;;0.88;;
42666;SDS011;28280;49.646;14.130;2022-07-15T07:48:20;1.95;;;0.93;;
42666;SDS011;28280;49.646;14.130;2022-07-15T07:53:51;1.35;;;0.88;;
42666;SDS011;28280;49.646;14.130;2022-07-15T07:59:22;1.52;;;0.93;;
42666;SDS011;28280;49.646;14.130;2022-07-15T08:04:53;2.65;;;0.82;;
42666;SDS011;28280;49.646;14.130;2022-07-15T08:10:24;1.80;;;0.95;;
42666;SDS011;28280;49.646;14.130;2022-07-15T08:15:55;1.40;;;1.00;;
42666;SDS011;28280;49.646;14.130;2022-07-15T08:21:37;2.33;;;1.10;;
42666;SDS011;28280;49.646;14.130;2022-07-15T08:27:08;2.90;;;1.00;;
42666;SDS011;28280;49.646;14.130;2022-07-15T08:32:40;3.08;;;1.20;;
42666;SDS011;28280;49.646;14.130;2022-07-15T08:38:11;1.55;;;0.98;;
42666;SDS011;28280;49.646;14.130;2022-07-15T08:43:42;2.13;;;1.20;;
42666;SDS011;28280;49.646;14.130;2022-07-15T08:49:14;3.30;;;1.17;;
42666;SDS011;28280;49.646;14.130;2022-07-15T08:54:46;2.92;;;1.00;;
42666;SDS011;28280;49.646;14.130;2022-07-15T09:00:22;2.45;;;1.10;;
42666;SDS011;28280;49.646;14.130;2022-07-15T09:05:59;2.42;;;1.20;;
42666;SDS011;28280;49.646;14.130;2022-07-15T09:11:30;1.73;;;1.05;;
42666;SDS011;28280;49.646;14.130;2022-07-15T09:22:49;4.10;;;1.23;;
42666;SDS011;28280;49.646;14.130;2022-07-15T09:28:34;1.70;;;0.93;;
42666;SDS011;28280;49.646;14.130;2022-07-15T09:34:08;0.90;;;0.80;;
42666;SDS011;28280;49.646;14.130;2022-07-15T09:39:52;2.63;;;1.10;;
42666;SDS011;28280;49.646;14.130;2022-07-15T09:45:25;2.25;;;0.95;;
42666;SDS011;28280;49.646;14.130;2022-07-15T09:50:59;3.67;;;1.33;;
42666;SDS011;28280;49.646;14.130;2022-07-15T09:56:31;1.52;;;1.10;;
42666;SDS011;28280;49.646;14.130;2022-07-15T10:02:02;1.80;;;1.10;;
42666;SDS011;28280;49.646;14.130;2022-07-15T10:07:34;2.50;;;1.10;;
42666;SDS011;28280;49.646;14.130;2022-07-15T10:19:35;3.10;;;1.08;;
42666;SDS011;28280;49.646;14.130;2022-07-15T10:30:53;2.45;;;1.10;;
42666;SDS011;28280;49.646;14.130;2022-07-15T10:42:18;1.75;;;1.23;;
42666;SDS011;28280;49.646;14.130;2022-07-15T10:47:56;1.73;;;1.08;;
42666;SDS011;28280;49.646;14.130;2022-07-15T10:53:57;1.92;;;1.30;;
42666;SDS011;28280;49.646;14.130;2022-07-15T10:59:28;3.47;;;1.50;;
42666;SDS011;28280;49.646;14.130;2022-07-15T11:05:19;1.90;;;1.25;;
42666;SDS011;28280;49.646;14.130;2022-07-15T11:10:52;2.65;;;1.75;;
42666;SDS011;28280;49.646;14.130;2022-07-15T11:16:23;2.65;;;1.83;;
42666;SDS011;28280;49.646;14.130;2022-07-15T11:21:54;3.33;;;1.80;;
42666;SDS011;28280;49.646;14.130;2022-07-15T11:27:25;2.97;;;1.30;;
42666;SDS011;28280;49.646;14.130;2022-07-15T11:32:57;2.33;;;1.50;;
42666;SDS011;28280;49.646;14.130;2022-07-15T11:38:30;2.45;;;1.50;;
42666;SDS011;28280;49.646;14.130;2022-07-15T11:44:06;3.03;;;1.73;;
42666;SDS011;28280;49.646;14.130;2022-07-15T11:49:59;4.05;;;1.85;;
42666;SDS011;28280;49.646;14.130;2022-07-15T11:55:31;3.35;;;2.03;;
42666;SDS011;28280;49.646;14.130;2022-07-15T12:01:04;2.55;;;1.60;;
42666;SDS011;28280;49.646;14.130;2022-07-15T12:06:38;2.28;;;1.98;;
42666;SDS011;28280;49.646;14.130;2022-07-15T12:12:09;4.82;;;1.95;;
42666;SDS011;28280;49.646;14.130;2022-07-15T12:17:40;2.60;;;1.77;;
42666;SDS011;28280;49.646;14.130;2022-07-15T12:23:12;3.15;;;1.45;;
42666;SDS011;28280;49.646;14.130;2022-07-15T12:28:43;4.38;;;1.70;;
42666;SDS011;28280;49.646;14.130;2022-07-15T12:40:21;3.55;;;1.52;;
42666;SDS011;28280;49.646;14.130;2022-07-15T12:45:54;2.95;;;1.50;;
42666;SDS011;28280;49.646;14.130;2022-07-15T12:51:27;2.60;;;1.50;;
42666;SDS011;28280;49.646;14.130;2022-07-15T12:56:58;2.65;;;1.40;;
42666;SDS011;28280;49.646;14.130;2022-07-15T13:02:31;3.75;;;1.60;;
42666;SDS011;28280;49.646;14.130;2022-07-15T13:08:02;2.40;;;1.52;;
42666;SDS011;28280;49.646;14.130;2022-07-15T13:13:35;6.40;;;1.70;;
42666;SDS011;28280;49.646;14.130;2022-07-15T13:19:07;3.80;;;1.95;;
42666;SDS011;28280;49.646;14.130;2022-07-15T13:24:38;2.67;;;1.60;;
42666;SDS011;28280;49.646;14.130;2022-07-15T13:30:10;1.95;;;1.45;;
42666;SDS011;28280;49.646;14.130;2022-07-15T13:35:42;4.63;;;1.70;;
42666;SDS011;28280;49.646;14.130;2022-07-15T13:41:13;2.40;;;1.52;;
42666;SDS011;28280;49.646;14.130;2022-07-15T13:46:44;2.22;;;1.35;;
42666;SDS011;28280;49.646;14.130;2022-07-15T13:52:15;2.83;;;1.65;;
42666;SDS011;28280;49.646;14.130;2022-07-15T13:57:47;2.30;;;1.37;;
42666;SDS011;28280;49.646;14.130;2022-07-15T14:03:18;3.13;;;1.55;;
42666;SDS011;28280;49.646;14.130;2022-07-15T14:08:49;3.13;;;1.67;;
42666;SDS011;28280;49.646;14.130;2022-07-15T14:19:53;3.05;;;1.23;;
42666;SDS011;28280;49.646;14.130;2022-07-15T14:25:25;3.33;;;1.50;;
42666;SDS011;28280;49.646;14.130;2022-07-15T14:30:57;2.97;;;1.50;;
42666;SDS011;28280;49.646;14.130;2022-07-15T14:36:28;3.75;;;1.90;;
42666;SDS011;28280;49.646;14.130;2022-07-15T14:41:59;3.38;;;1.20;;
42666;SDS011;28280;49.646;14.130;2022-07-15T14:47:30;3.30;;;1.80;;
42666;SDS011;28280;49.646;14.130;2022-07-15T14:53:02;2.75;;;1.40;;
42666;SDS011;28280;49.646;14.130;2022-07-15T14:58:34;4.40;;;1.60;;
42666;SDS011;28280;49.646;14.130;2022-07-15T15:04:05;2.10;;;1.55;;
42666;SDS011;28280;49.646;14.130;2022-07-15T15:09:36;3.03;;;1.75;;
42666;SDS011;28280;49.646;14.130;2022-07-15T15:15:07;5.70;;;2.00;;
42666;SDS011;28280;49.646;14.130;2022-07-15T15:20:39;4.72;;;1.90;;
42666;SDS011;28280;49.646;14.130;2022-07-15T15:26:10;3.60;;;1.55;;
42666;SDS011;28280;49.646;14.130;2022-07-15T15:31:53;2.42;;;1.73;;
42666;SDS011;28280;49.646;14.130;2022-07-15T15:37:24;6.53;;;1.65;;
42666;SDS011;28280;49.646;14.130;2022-07-15T15:42:55;2.50;;;1.45;;
42666;SDS011;28280;49.646;14.130;2022-07-15T15:48:26;2.78;;;1.30;;
42666;SDS011;28280;49.646;14.130;2022-07-15T15:53:58;2.97;;;1.70;;
42666;SDS011;28280;49.646;14.130;2022-07-15T15:59:29;3.88;;;1.75;;
42666;SDS011;28280;49.646;14.130;2022-07-15T16:05:00;2.88;;;1.45;;
42666;SDS011;28280;49.646;14.130;2022-07-15T16:10:48;4.53;;;1.77;;
42666;SDS011;28280;49.646;14.130;2022-07-15T16:16:19;2.60;;;1.35;;
42666;SDS011;28280;49.646;14.130;2022-07-15T16:21:51;2.15;;;1.50;;
42666;SDS011;28280;49.646;14.130;2022-07-15T16:27:41;3.00;;;1.60;;
42666;SDS011;28280;49.646;14.130;2022-07-15T16:33:12;2.90;;;1.65;;
42666;SDS011;28280;49.646;14.130;2022-07-15T16:38:43;3.13;;;1.60;;
42666;SDS011;28280;49.646;14.130;2022-07-15T16:44:14;3.75;;;1.80;;
42666;SDS011;28280;49.646;14.130;2022-07-15T16:49:46;2.37;;;1.53;;
42666;SDS011;28280;49.646;14.130;2022-07-15T16:55:19;2.75;;;1.73;;
42666;SDS011;28280;49.646;14.130;2022-07-15T17:00:50;3.00;;;1.77;;
42666;SDS011;28280;49.646;14.130;2022-07-15T17:06:21;2.55;;;1.60;;
42666;SDS011;28280;49.646;14.130;2022-07-15T17:11:52;4.82;;;1.70;;
42666;SDS011;28280;49.646;14.130;2022-07-15T17:17:23;3.45;;;1.50;;
42666;SDS011;28280;49.646;14.130;2022-07-15T17:22:54;4.30;;;1.65;;
42666;SDS011;28280;49.646;14.130;2022-07-15T17:28:25;2.30;;;1.70;;
42666;SDS011;28280;49.646;14.130;2022-07-15T17:33:56;2.30;;;1.60;;
42666;SDS011;28280;49.646;14.130;2022-07-15T17:39:31;2.63;;;1.80;;
42666;SDS011;28280;49.646;14.130;2022-07-15T17:45:02;2.78;;;1.75;;
42666;SDS011;28280;49.646;14.130;2022-07-15T17:50:34;2.55;;;1.70;;
42666;SDS011;28280;49.646;14.130;2022-07-15T17:56:05;4.40;;;2.13;;
42666;SDS011;28280;49.646;14.130;2022-07-15T18:01:37;4.40;;;2.00;;
42666;SDS011;28280;49.646;14.130;2022-07-15T18:07:08;2.85;;;1.60;;
42666;SDS011;28280;49.646;14.130;2022-07-15T18:12:40;5.25;;;2.28;;
42666;SDS011;28280;49.646;14.130;2022-07-15T18:18:11;3.30;;;1.70;;
42666;SDS011;28280;49.646;14.130;2022-07-15T18:23:44;3.72;;;1.60;;
42666;SDS011;28280;49.646;14.130;2022-07-15T18:29:15;3.35;;;1.65;;
42666;SDS011;28280;49.646;14.130;2022-07-15T18:34:47;2.40;;;1.55;;
42666;SDS011;28280;49.646;14.130;2022-07-15T18:40:18;3.42;;;1.50;;
42666;SDS011;28280;49.646;14.130;2022-07-15T18:45:50;4.93;;;1.50;;
42666;SDS011;28280;49.646;14.130;2022-07-15T18:51:22;3.10;;;1.50;;
42666;SDS011;28280;49.646;14.130;2022-07-15T18:56:53;2.35;;;1.33;;
42666;SDS011;28280;49.646;14.130;2022-07-15T19:02:24;2.35;;;1.52;;
42666;SDS011;28280;49.646;14.130;2022-07-15T19:07:55;2.90;;;1.60;;
42666;SDS011;28280;49.646;14.130;2022-07-15T19:13:27;2.42;;;1.70;;
42666;SDS011;28280;49.646;14.130;2022-07-15T19:18:58;2.53;;;1.40;;
42666;SDS011;28280;49.646;14.130;2022-07-15T19:24:30;2.77;;;1.60;;
42666;SDS011;28280;49.646;14.130;2022-07-15T19:30:01;2.55;;;1.80;;
42666;SDS011;28280;49.646;14.130;2022-07-15T19:35:33;2.60;;;1.50;;
42666;SDS011;28280;49.646;14.130;2022-07-15T19:41:04;2.35;;;1.50;;
42666;SDS011;28280;49.646;14.130;2022-07-15T19:46:35;4.80;;;1.90;;
42666;SDS011;28280;49.646;14.130;2022-07-15T19:52:06;4.60;;;1.80;;
42666;SDS011;28280;49.646;14.130;2022-07-15T19:57:38;2.47;;;1.60;;
42666;SDS011;28280;49.646;14.130;2022-07-15T20:03:09;2.97;;;1.73;;
42666;SDS011;28280;49.646;14.130;2022-07-15T20:08:40;3.20;;;1.83;;
42666;SDS011;28280;49.646;14.130;2022-07-15T20:14:11;2.63;;;1.63;;
42666;SDS011;28280;49.646;14.130;2022-07-15T20:19:42;2.33;;;1.55;;
42666;SDS011;28280;49.646;14.130;2022-07-15T20:25:13;3.55;;;1.40;;
42666;SDS011;28280;49.646;14.130;2022-07-15T20:30:45;3.23;;;1.60;;
42666;SDS011;28280;49.646;14.130;2022-07-15T20:36:16;4.45;;;1.70;;
42666;SDS011;28280;49.646;14.130;2022-07-15T20:41:48;2.95;;;1.73;;
42666;SDS011;28280;49.646;14.130;2022-07-15T20:47:19;4.30;;;1.60;;
42666;SDS011;28280;49.646;14.130;2022-07-15T20:52:50;3.95;;;1.70;;
42666;SDS011;28280;49.646;14.130;2022-07-15T20:58:21;5.20;;;1.60;;
42666;SDS011;28280;49.646;14.130;2022-07-15T21:03:52;6.20;;;1.75;;
42666;SDS011;28280;49.646;14.130;2022-07-15T21:09:24;3.50;;;1.60;;
42666;SDS011;28280;49.646;14.130;2022-07-15T21:14:55;3.28;;;1.60;;
42666;SDS011;28280;49.646;14.130;2022-07-15T21:20:26;2.38;;;1.70;;
42666;SDS011;28280;49.646;14.130;2022-07-15T21:25:57;3.97;;;1.50;;
42666;SDS011;28280;49.646;14.130;2022-07-15T21:31:47;2.33;;;1.60;;
42666;SDS011;28280;49.646;14.130;2022-07-15T21:37:18;3.00;;;1.60;;
42666;SDS011;28280;49.646;14.130;2022-07-15T21:42:49;3.60;;;1.83;;
42666;SDS011;28280;49.646;14.130;2022-07-15T21:48:22;3.28;;;1.70;;
42666;SDS011;28280;49.646;14.130;2022-07-15T21:53:53;4.32;;;1.80;;
42666;SDS011;28280;49.646;14.130;2022-07-15T21:59:24;2.90;;;1.50;;
42666;SDS011;28280;49.646;14.130;2022-07-15T22:04:55;5.97;;;1.98;;
42666;SDS011;28280;49.646;14.130;2022-07-15T22:10:27;3.92;;;1.90;;
42666;SDS011;28280;49.646;14.130;2022-07-15T22:15:59;2.88;;;1.70;;
42666;SDS011;28280;49.646;14.130;2022-07-15T22:21:30;2.90;;;1.70;;
42666;SDS011;28280;49.646;14.130;2022-07-15T22:27:01;2.70;;;1.55;;
42666;SDS011;28280;49.646;14.130;2022-07-15T22:32:32;3.13;;;1.80;;
42666;SDS011;28280;49.646;14.130;2022-07-15T22:38:04;2.58;;;1.70;;
42666;SDS011;28280;49.646;14.130;2022-07-15T22:43:35;2.85;;;1.73;;
42666;SDS011;28280;49.646;14.130;2022-07-15T22:49:06;2.72;;;1.70;;
42666;SDS011;28280;49.646;14.130;2022-07-15T22:54:37;3.30;;;1.60;;
42666;SDS011;28280;49.646;14.130;2022-07-15T23:00:08;2.35;;;1.73;;
42666;SDS011;28280;49.646;14.130;2022-07-15T23:05:40;3.05;;;1.70;;
42666;SDS011;28280;49.646;14.130;2022-07-15T23:11:11;2.50;;;1.80;;
42666;SDS011;28280;49.646;14.130;2022-07-15T23:16:42;2.28;;;1.65;;
42666;SDS011;28280;49.646;14.130;2022-07-15T23:22:13;3.83;;;1.70;;
42666;SDS011;28280;49.646;14.130;2022-07-15T23:27:45;2.40;;;1.50;;
42666;SDS011;28280;49.646;14.130;2022-07-15T23:33:16;3.40;;;1.48;;
42666;SDS011;28280;49.646;14.130;2022-07-15T23:38:47;2.50;;;1.65;;
42666;SDS011;28280;49.646;14.130;2022-07-15T23:44:18;4.22;;;1.70;;
42666;SDS011;28280;49.646;14.130;2022-07-15T23:49:49;3.33;;;2.00;;
42666;SDS011;28280;49.646;14.130;2022-07-15T23:55:19;2.35;;;1.80;;
